createdAt,value
2023-04-29T00:01:37.858Z,101116.75
2023-04-29T00:04:06.364Z,101119.47
2023-04-29T00:06:34.713Z,101110.56
2023-04-29T00:09:02.912Z,101103.72
2023-04-29T00:11:31.123Z,101113.59
2023-04-29T00:13:59.316Z,101117.19
2023-04-29T00:16:27.601Z,101112.63
2023-04-29T00:18:56.325Z,101114.22
2023-04-29T00:21:25.452Z,101117.19
2023-04-29T00:23:53.697Z,101116.59
2023-04-29T00:26:21.940Z,101116.00
2023-04-29T00:28:50.176Z,101120.78
2023-04-29T00:31:18.425Z,101125.00
2023-04-29T00:33:47.284Z,101127.00
2023-04-29T00:36:15.956Z,101123.84
2023-04-29T00:38:44.397Z,101124.69
2023-04-29T00:41:12.778Z,101127.41
2023-04-29T00:43:41.010Z,101124.91
2023-04-29T00:46:09.932Z,101136.22
2023-04-29T00:48:38.291Z,101131.44
2023-04-29T00:51:07.694Z,101140.19
2023-04-29T00:53:36.203Z,101134.41
2023-04-29T00:56:04.947Z,101138.75
2023-04-29T00:58:36.150Z,101142.81
2023-04-29T01:01:07.437Z,101150.75
2023-04-29T01:03:38.633Z,101146.63
2023-04-29T01:06:45.354Z,101139.16
2023-04-29T01:09:42.290Z,101144.44
2023-04-29T01:12:33.213Z,101144.69
2023-04-29T01:15:11.816Z,101150.09
2023-04-29T01:17:45.813Z,101150.09
2023-04-29T01:20:15.914Z,101148.63
2023-04-29T01:22:44.302Z,101144.47
2023-04-29T01:25:12.516Z,101154.16
2023-04-29T01:28:08.593Z,101156.97
2023-04-29T01:30:43.935Z,101150.31
2023-04-29T01:33:22.342Z,101151.13
2023-04-29T01:36:02.231Z,101153.28
2023-04-29T01:38:54.369Z,101168.31
2023-04-29T01:41:40.769Z,101146.69
2023-04-29T01:44:14.530Z,101152.13
2023-04-29T01:46:44.409Z,101153.91
2023-04-29T01:49:14.200Z,101155.44
2023-04-29T01:51:42.486Z,101149.72
2023-04-29T01:54:11.308Z,101153.50
2023-04-29T01:56:39.542Z,101153.06
2023-04-29T01:59:09.044Z,101158.69
2023-04-29T02:01:37.424Z,101158.03
2023-04-29T02:04:06.086Z,101165.84
2023-04-29T02:06:34.481Z,101167.53
2023-04-29T02:09:02.717Z,101170.78
2023-04-29T02:11:31.134Z,101176.31
2023-04-29T02:13:59.560Z,101179.09
2023-04-29T02:16:27.843Z,101176.94
2023-04-29T02:18:56.199Z,101178.59
2023-04-29T02:21:24.861Z,101181.06
2023-04-29T02:23:55.269Z,101188.38
2023-04-29T02:26:24.605Z,101185.78
2023-04-29T02:28:53.422Z,101183.59
2023-04-29T02:31:21.704Z,101192.28
2023-04-29T02:33:50.079Z,101192.59
2023-04-29T02:36:19.150Z,101193.66
2023-04-29T02:38:47.801Z,101193.97
2023-04-29T02:41:19.607Z,101198.09
2023-04-29T02:43:49.943Z,101203.69
2023-04-29T02:46:19.670Z,101206.94
2023-04-29T02:48:47.920Z,101206.72
2023-04-29T02:51:16.183Z,101208.19
2023-04-29T02:53:45.425Z,101213.28
2023-04-29T02:56:13.677Z,101220.66
2023-04-29T02:58:43.117Z,101218.53
2023-04-29T03:01:11.740Z,101218.38
2023-04-29T03:03:40.119Z,101220.75
2023-04-29T03:06:08.555Z,101226.28
2023-04-29T03:08:36.784Z,101230.09
2023-04-29T03:11:05.329Z,101238.88
2023-04-29T03:13:33.584Z,101242.56
2023-04-29T03:16:02.045Z,101248.47
2023-04-29T03:18:30.254Z,101254.09
2023-04-29T03:20:58.533Z,101265.06
2023-04-29T03:23:27.586Z,101266.69
2023-04-29T03:25:56.480Z,101263.75
2023-04-29T03:28:24.907Z,101270.13
2023-04-29T03:30:53.169Z,101282.00
2023-04-29T03:33:21.409Z,101291.94
2023-04-29T03:35:49.668Z,101291.66
2023-04-29T03:38:17.909Z,101300.22
2023-04-29T03:40:46.480Z,101302.53
2023-04-29T03:43:15.396Z,101309.16
2023-04-29T03:45:43.578Z,101313.16
2023-04-29T03:48:13.326Z,101321.28
2023-04-29T03:50:41.633Z,101321.28
2023-04-29T03:53:09.966Z,101326.94
2023-04-29T03:55:38.195Z,101325.66
2023-04-29T03:58:06.485Z,101331.03
2023-04-29T04:00:34.804Z,101328.28
2023-04-29T04:03:05.242Z,101335.97
2023-04-29T04:05:34.107Z,101340.72
2023-04-29T04:08:02.767Z,101341.78
2023-04-29T04:10:31.092Z,101356.44
2023-04-29T04:12:59.332Z,101348.84
2023-04-29T04:15:27.602Z,101359.56
2023-04-29T04:17:55.852Z,101361.38
2023-04-29T04:20:24.114Z,101366.59
2023-04-29T04:22:52.452Z,101372.88
2023-04-29T04:25:20.613Z,101376.31
2023-04-29T04:27:48.878Z,101371.81
2023-04-29T04:30:17.361Z,101377.16
2023-04-29T04:32:46.074Z,101378.03
2023-04-29T04:35:14.365Z,101384.25
2023-04-29T04:37:42.611Z,101387.88
2023-04-29T04:40:12.241Z,101395.19
2023-04-29T04:42:40.705Z,101393.88
2023-04-29T04:45:10.519Z,101391.66
2023-04-29T04:47:39.089Z,101398.97
2023-04-29T04:50:08.215Z,101397.66
2023-04-29T04:52:36.802Z,101399.66
2023-04-29T04:55:05.276Z,101403.53
2023-04-29T04:57:33.583Z,101412.53
2023-04-29T05:00:02.551Z,101410.59
2023-04-29T05:02:30.842Z,101412.25
2023-04-29T05:04:59.349Z,101412.25
2023-04-29T05:07:27.569Z,101409.50
2023-04-29T05:09:55.811Z,101414.88
2023-04-29T05:12:26.224Z,101412.19
2023-04-29T05:14:54.921Z,101408.66
2023-04-29T05:17:23.418Z,101408.69
2023-04-29T05:19:52.168Z,101403.34
2023-04-29T05:22:20.613Z,101411.53
2023-04-29T05:24:53.682Z,101410.00
2023-04-29T05:27:22.115Z,101399.50
2023-04-29T05:29:50.485Z,101406.59
2023-04-29T05:32:18.831Z,101409.34
2023-04-29T05:34:47.474Z,101409.53
2023-04-29T05:37:15.879Z,101409.75
2023-04-29T05:39:44.160Z,101411.56
2023-04-29T05:42:12.434Z,101416.94
2023-04-29T05:44:40.906Z,101409.94
2023-04-29T05:47:09.193Z,101413.47
2023-04-29T05:49:37.381Z,101417.97
2023-04-29T05:52:07.370Z,101417.09
2023-04-29T05:54:36.163Z,101410.13
2023-04-29T05:57:04.596Z,101409.50
2023-04-29T05:59:33.865Z,101412.47
2023-04-29T06:02:02.406Z,101405.50
2023-04-29T06:04:30.895Z,101407.25
2023-04-29T06:06:59.543Z,101407.38
2023-04-29T06:09:28.487Z,101412.97
2023-04-29T06:11:57.185Z,101413.13
2023-04-29T06:14:25.445Z,101415.06
2023-04-29T06:16:54.597Z,101412.44
2023-04-29T06:19:23.012Z,101407.09
2023-04-29T06:21:51.374Z,101418.78
2023-04-29T06:24:19.684Z,101419.81
2023-04-29T06:26:48.421Z,101420.66
2023-04-29T06:29:17.049Z,101421.63
2023-04-29T06:31:45.500Z,101419.81
2023-04-29T06:34:14.044Z,101413.66
2023-04-29T06:36:42.464Z,101425.34
2023-04-29T06:39:10.629Z,101424.81
2023-04-29T06:41:38.904Z,101422.25
2023-04-29T06:44:07.089Z,101426.81
2023-04-29T06:46:35.262Z,101432.94
2023-04-29T06:49:03.487Z,101428.47
2023-04-29T06:51:33.007Z,101423.22
2023-04-29T06:54:01.409Z,101429.59
2023-04-29T06:56:29.591Z,101429.84
2023-04-29T06:58:57.756Z,101429.22
2023-04-29T07:01:25.968Z,101441.13
2023-04-29T07:03:54.363Z,101443.09
2023-04-29T07:06:22.780Z,101438.69
2023-04-29T07:08:51.109Z,101443.09
2023-04-29T07:11:19.975Z,101442.13
2023-04-29T07:13:48.586Z,101435.06
2023-04-29T07:16:22.872Z,101445.75
2023-04-29T07:18:51.164Z,101436.91
2023-04-29T07:21:19.357Z,101437.75
2023-04-29T07:23:47.738Z,101440.63
2023-04-29T07:26:17.817Z,101447.91
2023-04-29T07:28:47.098Z,101449.81
2023-04-29T07:31:15.374Z,101451.72
2023-04-29T07:33:46.395Z,101458.94
2023-04-29T07:36:14.727Z,101459.72
2023-04-29T07:38:42.947Z,101463.34
2023-04-29T07:41:11.209Z,101462.50
2023-04-29T07:43:41.569Z,101464.38
2023-04-29T07:46:10.568Z,101469.03
2023-04-29T07:48:41.711Z,101461.25
2023-04-29T07:51:15.333Z,101457.75
2023-04-29T07:53:44.244Z,101456.09
2023-04-29T07:56:12.532Z,101460.50
2023-04-29T07:58:40.746Z,101461.38
2023-04-29T08:01:12.813Z,101455.06
2023-04-29T08:03:41.981Z,101453.25
2023-04-29T08:06:10.607Z,101458.63
2023-04-29T08:08:38.964Z,101459.50
2023-04-29T08:11:07.507Z,101456.03
2023-04-29T08:13:35.700Z,101455.22
2023-04-29T08:16:03.906Z,101448.19
2023-04-29T08:18:32.415Z,101443.72
2023-04-29T08:21:00.590Z,101444.59
2023-04-29T08:23:28.996Z,101450.88
2023-04-29T08:25:57.355Z,101448.28
2023-04-29T08:28:26.157Z,101447.56
2023-04-29T08:30:54.332Z,101447.66
2023-04-29T08:33:23.199Z,101449.38
2023-04-29T08:36:00.210Z,101444.22
2023-04-29T08:38:28.847Z,101447.94
2023-04-29T08:40:57.334Z,101445.41
2023-04-29T08:43:26.526Z,101446.47
2023-04-29T08:45:55.253Z,101444.84
2023-04-29T08:48:24.161Z,101443.91
2023-04-29T08:50:52.821Z,101447.44
2023-04-29T08:53:22.110Z,101445.75
2023-04-29T08:55:50.390Z,101449.41
2023-04-29T08:58:19.156Z,101450.28
2023-04-29T09:00:48.005Z,101449.31
2023-04-29T09:03:26.789Z,101448.38
2023-04-29T09:05:57.111Z,101443.91
2023-04-29T09:08:25.919Z,101440.41
2023-04-29T09:10:54.539Z,101432.47
2023-04-29T09:13:33.392Z,101432.47
2023-04-29T09:16:01.711Z,101435.19
2023-04-29T09:18:52.083Z,101428.06
2023-04-29T09:21:22.954Z,101426.19
2023-04-29T09:23:59.168Z,101426.31
2023-04-29T09:26:28.271Z,101423.75
2023-04-29T09:29:16.993Z,101427.47
2023-04-29T09:31:46.602Z,101420.38
2023-04-29T09:34:15.864Z,101425.78
2023-04-29T09:36:47.513Z,101424.75
2023-04-29T09:39:23.289Z,101423.81
2023-04-29T09:41:54.591Z,101413.94
2023-04-29T09:44:29.183Z,101412.31
2023-04-29T09:47:03.755Z,101418.53
2023-04-29T09:49:39.202Z,101415.75
2023-04-29T09:52:10.402Z,101415.69
2023-04-29T09:54:40.607Z,101413.84
2023-04-29T09:57:11.036Z,101413.72
2023-04-29T09:59:41.563Z,101417.22
2023-04-29T10:02:12.686Z,101411.06
2023-04-29T10:04:43.595Z,101408.38
2023-04-29T10:07:16.579Z,101411.88
2023-04-29T10:09:47.609Z,101401.13
2023-04-29T10:12:22.455Z,101402.94
2023-04-29T10:15:05.763Z,101411.13
2023-04-29T10:17:48.559Z,101403.41
2023-04-29T10:20:24.216Z,101401.66
2023-04-29T10:22:55.579Z,101398.94
2023-04-29T10:25:25.502Z,101402.41
2023-04-29T10:27:56.789Z,101402.25
2023-04-29T10:30:25.083Z,101401.28
2023-04-29T10:32:53.474Z,101401.22
2023-04-29T10:35:26.255Z,101410.00
2023-04-29T10:37:56.085Z,101408.28
2023-04-29T10:40:43.666Z,101407.34
2023-04-29T10:43:11.963Z,101407.25
2023-04-29T10:45:40.624Z,101410.84
2023-04-29T10:48:16.070Z,101416.34
2023-04-29T10:50:50.205Z,101420.06
2023-04-29T10:53:20.359Z,101418.34
2023-04-29T10:55:49.943Z,101420.13
2023-04-29T10:58:47.269Z,101408.50
2023-04-29T11:01:17.532Z,101417.31
2023-04-29T11:04:01.375Z,101415.41
2023-04-29T11:06:38.575Z,101416.97
2023-04-29T11:09:26.484Z,101418.78
2023-04-29T11:12:01.423Z,101416.19
2023-04-29T11:14:52.038Z,101422.56
2023-04-29T11:17:21.573Z,101420.94
2023-04-29T11:19:53.257Z,101419.13
2023-04-29T11:22:25.015Z,101416.34
2023-04-29T11:25:03.798Z,101416.44
2023-04-29T11:27:43.966Z,101421.72
2023-04-29T11:30:13.457Z,101422.66
2023-04-29T11:32:43.710Z,101427.88
2023-04-29T11:35:16.761Z,101428.66
2023-04-29T11:37:46.515Z,101418.94
2023-04-29T11:40:15.891Z,101419.06
2023-04-29T11:42:49.518Z,101420.81
2023-04-29T11:45:21.459Z,101416.34
2023-04-29T11:47:52.081Z,101421.63
2023-04-29T11:50:21.650Z,101423.44
2023-04-29T11:52:50.804Z,101422.63
2023-04-29T11:55:20.602Z,101427.88
2023-04-29T11:57:53.076Z,101428.84
2023-04-29T12:00:21.578Z,101433.31
2023-04-29T12:02:49.898Z,101425.28
2023-04-29T12:05:19.978Z,101428.75
2023-04-29T12:07:51.945Z,101425.22
2023-04-29T12:10:20.251Z,101431.44
2023-04-29T12:12:49.701Z,101426.88
2023-04-29T12:15:18.187Z,101420.59
2023-04-29T12:17:47.502Z,101421.44
2023-04-29T12:20:16.266Z,101433.88
2023-04-29T12:22:44.800Z,101438.28
2023-04-29T12:25:13.312Z,101440.00
2023-04-29T12:27:45.736Z,101446.16
2023-04-29T12:30:14.138Z,101438.16
2023-04-29T12:32:42.655Z,101443.50
2023-04-29T12:35:19.525Z,101448.94
2023-04-29T12:37:53.673Z,101446.47
2023-04-29T12:40:21.975Z,101441.34
2023-04-29T12:42:50.337Z,101454.81
2023-04-29T12:45:33.009Z,101447.94
2023-04-29T12:48:05.655Z,101458.94
2023-04-29T12:50:39.595Z,101453.91
2023-04-29T12:53:09.554Z,101461.34
2023-04-29T12:55:39.392Z,101458.69
2023-04-29T12:58:08.288Z,101457.81
2023-04-29T13:00:38.313Z,101453.53
2023-04-29T13:03:06.924Z,101452.59
2023-04-29T13:05:35.565Z,101449.66
2023-04-29T13:08:04.217Z,101456.59
2023-04-29T13:10:32.553Z,101452.34
2023-04-29T13:13:01.111Z,101457.59
2023-04-29T13:15:29.397Z,101458.44
2023-04-29T13:17:59.474Z,101461.88
2023-04-29T13:20:27.848Z,101464.50
2023-04-29T13:22:56.005Z,101461.72
2023-04-29T13:25:24.201Z,101462.53
2023-04-29T13:27:52.524Z,101469.50
2023-04-29T13:30:20.797Z,101466.78
2023-04-29T13:32:54.905Z,101465.03
2023-04-29T13:35:24.861Z,101469.50
2023-04-29T13:37:53.259Z,101474.84
2023-04-29T13:40:21.787Z,101475.78
2023-04-29T13:42:56.902Z,101490.78
2023-04-29T13:45:32.459Z,101481.84
2023-04-29T13:48:07.522Z,101487.19
2023-04-29T13:58:56.016Z,101498.56
2023-04-29T14:03:35.949Z,101488.97
2023-04-29T14:06:04.586Z,101493.72
2023-04-29T14:08:32.783Z,101488.56
2023-04-29T14:11:01.603Z,101491.41
2023-04-29T14:13:30.349Z,101500.41
2023-04-29T14:16:00.576Z,101506.50
2023-04-29T14:18:30.937Z,101507.31
2023-04-29T14:21:00.502Z,101505.44
2023-04-29T14:23:28.762Z,101510.63
2023-04-29T14:26:16.512Z,101510.63
2023-04-29T14:28:45.696Z,101518.59
2023-04-29T14:31:14.544Z,101520.34
2023-04-29T14:33:42.828Z,101515.94
2023-04-29T14:36:11.143Z,101524.81
2023-04-29T14:38:39.351Z,101519.47
2023-04-29T14:41:07.984Z,101522.91
2023-04-29T14:43:37.092Z,101530.00
2023-04-29T14:46:05.435Z,101529.06
2023-04-29T14:48:34.029Z,101532.50
2023-04-29T14:51:02.227Z,101531.66
2023-04-29T14:53:30.433Z,101523.72
2023-04-29T14:55:58.767Z,101526.38
2023-04-29T14:58:27.000Z,101535.03
2023-04-29T15:00:55.247Z,101525.06
2023-04-29T15:03:24.313Z,101525.84
2023-04-29T15:05:53.162Z,101532.06
2023-04-29T15:08:21.640Z,101535.44
2023-04-29T15:10:50.499Z,101533.59
2023-04-29T15:13:18.708Z,101540.53
2023-04-29T15:15:47.517Z,101541.25
2023-04-29T15:18:15.773Z,101547.19
2023-04-29T15:20:43.970Z,101542.50
2023-04-29T15:23:12.379Z,101547.56
2023-04-29T15:25:40.628Z,101540.34
2023-04-29T15:28:09.010Z,101548.44
2023-04-29T15:30:37.337Z,101547.72
2023-04-29T15:33:07.594Z,101553.19
2023-04-29T15:35:37.395Z,101553.84
2023-04-29T15:38:05.630Z,101557.09
2023-04-29T15:40:33.889Z,101555.25
2023-04-29T15:43:02.302Z,101552.28
2023-04-29T15:45:30.527Z,101556.47
2023-04-29T15:47:58.937Z,101557.09
2023-04-29T15:50:27.297Z,101547.00
2023-04-29T15:52:56.823Z,101554.69
2023-04-29T15:55:25.029Z,101552.63
2023-04-29T15:57:53.257Z,101549.66
2023-04-29T16:00:21.548Z,101554.59
2023-04-29T16:02:50.050Z,101559.50
2023-04-29T16:05:18.382Z,101558.19
2023-04-29T16:07:46.912Z,101551.72
2023-04-29T16:10:15.250Z,101558.03
2023-04-29T16:12:43.970Z,101550.09
2023-04-29T16:15:12.508Z,101555.34
2023-04-29T16:17:40.845Z,101553.78
2023-04-29T16:20:09.830Z,101553.13
2023-04-29T16:22:38.085Z,101546.16
2023-04-29T16:25:06.725Z,101555.88
2023-04-29T16:27:34.972Z,101550.03
2023-04-29T16:30:03.397Z,101553.34
2023-04-29T16:32:32.275Z,101551.03
2023-04-29T16:35:01.497Z,101557.38
2023-04-29T16:37:30.363Z,101543.06
2023-04-29T16:39:59.087Z,101540.38
2023-04-29T16:42:27.387Z,101544.16
2023-04-29T16:44:55.583Z,101543.47
2023-04-29T16:47:24.966Z,101543.31
2023-04-29T16:49:53.506Z,101539.59
2023-04-29T16:52:22.509Z,101538.63
2023-04-29T16:54:50.720Z,101540.31
2023-04-29T16:57:18.934Z,101532.25
2023-04-29T16:59:47.497Z,101536.53
2023-04-29T17:02:15.681Z,101541.09
2023-04-29T17:04:44.271Z,101535.78
2023-04-29T17:07:14.847Z,101532.78
2023-04-29T17:09:43.054Z,101541.81
2023-04-29T17:12:11.353Z,101535.78
2023-04-29T17:14:40.820Z,101540.03
2023-04-29T17:17:09.083Z,101537.06
2023-04-29T17:19:37.287Z,101543.94
2023-04-29T17:22:05.869Z,101540.97
2023-04-29T17:24:34.642Z,101540.63
2023-04-29T17:27:02.884Z,101543.72
2023-04-29T17:29:31.106Z,101546.28
2023-04-29T17:32:00.968Z,101545.31
2023-04-29T17:34:31.791Z,101538.63
2023-04-29T17:36:59.999Z,101542.75
2023-04-29T17:39:28.234Z,101535.19
2023-04-29T17:41:56.549Z,101542.78
2023-04-29T17:44:24.781Z,101523.13
2023-04-29T17:46:53.060Z,101531.03
2023-04-29T17:49:21.450Z,101529.13
2023-04-29T17:51:49.677Z,101535.69
2023-04-29T17:54:17.937Z,101539.53
2023-04-29T17:56:46.395Z,101539.44
2023-04-29T17:59:14.590Z,101528.41
2023-04-29T18:01:43.385Z,101538.63
2023-04-29T18:04:11.782Z,101533.09
2023-04-29T18:06:40.141Z,101524.81
2023-04-29T18:09:08.579Z,101530.31
2023-04-29T18:11:36.844Z,101531.97
2023-04-29T18:14:05.689Z,101526.63
2023-04-29T18:16:34.146Z,101525.47
2023-04-29T18:19:02.457Z,101520.13
2023-04-29T18:21:30.699Z,101524.31
2023-04-29T18:23:59.178Z,101516.94
2023-04-29T18:26:27.720Z,101519.31
2023-04-29T18:28:55.965Z,101511.38
2023-04-29T18:31:26.012Z,101516.06
2023-04-29T18:33:54.513Z,101512.03
2023-04-29T18:36:24.469Z,101509.94
2023-04-29T18:38:52.922Z,101511.09
2023-04-29T18:41:21.151Z,101509.69
2023-04-29T18:43:49.402Z,101505.41
2023-04-29T18:46:18.061Z,101505.47
2023-04-29T18:48:46.338Z,101503.38
2023-04-29T18:51:14.631Z,101501.22
2023-04-29T18:53:42.972Z,101499.25
2023-04-29T18:56:11.287Z,101499.00
2023-04-29T18:58:39.553Z,101488.81
2023-04-29T19:01:07.933Z,101491.50
2023-04-29T19:03:36.678Z,101491.25
2023-04-29T19:06:04.993Z,101481.13
2023-04-29T19:08:33.265Z,101484.91
2023-04-29T19:11:01.590Z,101479.72
2023-04-29T19:13:30.208Z,101479.38
2023-04-29T19:15:58.570Z,101474.88
2023-04-29T19:18:27.248Z,101482.66
2023-04-29T19:20:56.867Z,101472.22
2023-04-29T19:23:25.095Z,101478.72
2023-04-29T19:25:53.343Z,101473.72
2023-04-29T19:28:21.670Z,101467.63
2023-04-29T19:30:50.049Z,101472.59
2023-04-29T19:33:18.296Z,101474.03
2023-04-29T19:35:47.137Z,101463.88
2023-04-29T19:38:15.378Z,101471.16
2023-04-29T19:40:43.591Z,101461.94
2023-04-29T19:43:11.889Z,101463.81
2023-04-29T19:45:40.408Z,101463.91
2023-04-29T19:48:08.675Z,101453.56
2023-04-29T19:50:36.885Z,101459.31
2023-04-29T19:53:05.067Z,101455.22
2023-04-29T19:55:34.591Z,101452.06
2023-04-29T19:58:02.920Z,101450.34
2023-04-29T20:00:31.916Z,101460.59
2023-04-29T20:03:00.321Z,101449.50
2023-04-29T20:05:29.248Z,101448.66
2023-04-29T20:07:57.818Z,101448.41
2023-04-29T20:10:28.991Z,101441.50
2023-04-29T20:12:58.385Z,101438.47
2023-04-29T20:15:27.117Z,101437.00
2023-04-29T20:17:56.474Z,101440.09
2023-04-29T20:20:25.862Z,101433.97
2023-04-29T20:22:58.756Z,101442.06
2023-04-29T20:25:27.875Z,101439.84
2023-04-29T20:27:56.285Z,101432.78
2023-04-29T20:30:24.911Z,101435.94
2023-04-29T20:32:53.435Z,101430.91
2023-04-29T20:35:22.138Z,101421.16
2023-04-29T20:37:50.548Z,101420.38
2023-04-29T20:40:19.289Z,101418.81
2023-04-29T20:42:48.078Z,101412.31
2023-04-29T20:45:16.708Z,101412.00
2023-04-29T20:47:45.290Z,101419.56
2023-04-29T20:50:13.915Z,101410.28
2023-04-29T20:52:42.489Z,101404.16
2023-04-29T20:55:11.240Z,101409.09
2023-04-29T20:57:40.444Z,101405.28
2023-04-29T21:00:10.447Z,101407.28
2023-04-29T21:02:38.664Z,101407.81
2023-04-29T21:05:07.279Z,101402.41
2023-04-29T21:07:35.505Z,101402.44
2023-04-29T21:10:03.886Z,101397.97
2023-04-29T21:12:32.159Z,101400.16
2023-04-29T21:15:00.363Z,101398.41
2023-04-29T21:17:28.633Z,101395.06
2023-04-29T21:19:57.573Z,101392.72
2023-04-29T21:22:25.844Z,101395.97
2023-04-29T21:24:54.046Z,101389.03
2023-04-29T21:27:22.522Z,101388.03
2023-04-29T21:29:50.715Z,101391.75
2023-04-29T21:32:22.365Z,101384.56
2023-04-29T21:34:50.861Z,101376.47
2023-04-29T21:37:19.138Z,101380.91
2023-04-29T21:39:47.774Z,101383.81
2023-04-29T21:42:21.955Z,101375.91
2023-04-29T21:44:49.809Z,101380.28
2023-04-29T21:47:18.140Z,101372.34
2023-04-29T21:49:46.516Z,101372.63
2023-04-29T21:52:14.708Z,101365.84
2023-04-29T21:54:42.899Z,101365.94
2023-04-29T21:57:11.262Z,101366.22
2023-04-29T21:59:39.601Z,101357.09
2023-04-29T22:02:23.177Z,101364.75
2023-04-29T22:04:55.068Z,101363.22
2023-04-29T22:07:24.118Z,101358.22
2023-04-29T22:09:52.695Z,101353.19
2023-04-29T22:12:21.859Z,101355.75
2023-04-29T22:14:50.152Z,101352.22
2023-04-29T22:17:18.360Z,101344.59
2023-04-29T22:19:46.847Z,101341.50
2023-04-29T22:22:15.222Z,101333.41
2023-04-29T22:24:43.425Z,101327.28
2023-04-29T22:27:11.621Z,101326.19
2023-04-29T22:29:40.426Z,101322.34
2023-04-29T22:32:09.042Z,101319.72
2023-04-29T22:34:37.646Z,101314.75
2023-04-29T22:37:05.891Z,101319.06
2023-04-29T22:39:34.212Z,101315.75
2023-04-29T22:42:05.459Z,101306.16
2023-04-29T22:44:33.811Z,101316.63
2023-04-29T22:47:02.613Z,101302.19
2023-04-29T22:49:30.775Z,101301.81
2023-04-29T22:51:59.014Z,101307.44
2023-04-29T22:54:27.344Z,101296.97
2023-04-29T22:56:55.513Z,101294.63
2023-04-29T22:59:23.742Z,101289.06
2023-04-29T23:01:52.565Z,101282.19
2023-04-29T23:04:21.354Z,101285.34
2023-04-29T23:06:49.681Z,101285.59
2023-04-29T23:09:18.028Z,101278.03
2023-04-29T23:11:46.368Z,101280.31
2023-04-29T23:14:14.571Z,101274.88
2023-04-29T23:16:42.793Z,101273.25
2023-04-29T23:19:11.142Z,101269.06
2023-04-29T23:21:39.402Z,101268.22
2023-04-29T23:24:07.695Z,101261.78
2023-04-29T23:26:35.885Z,101267.34
2023-04-29T23:29:04.070Z,101259.25
2023-04-29T23:31:32.296Z,101267.09
2023-04-29T23:34:00.852Z,101258.38
2023-04-29T23:36:29.081Z,101259.63
2023-04-29T23:38:57.299Z,101259.50
2023-04-29T23:41:25.535Z,101256.25
2023-04-29T23:43:54.165Z,101261.19
2023-04-29T23:46:22.458Z,101254.69
2023-04-29T23:48:50.744Z,101253.31
2023-04-29T23:51:18.942Z,101252.66
2023-04-29T23:53:47.515Z,101252.97
2023-04-29T23:56:15.699Z,101249.09
2023-04-29T23:58:43.913Z,101263.81
